Shanghai Express — DPCK — position and weather

sailwx.info

Track history (hours):
 
Tides and Currents Weather Stations Pressure Air Temp Water Temp Dewpoint Dewpoint Depression Visibility Wind Speed Wind Dir Waves Ship Positions

Shanghai Express

Last reported at 2014-Nov-20 21:13 UTC. Time now 2014-Nov-24 08:19 UTC.
Position N 01°13' E 103°52'.

Length 320.6 m; beam 42.8 m; draft 14.5 m.

Type: Ship (hazmat cat A). MMSI: 211367460.

Date/timePositionNaut miles runAvg speedWind from/ knotsBaromVisibWave heightAir tempDewpointWater temp
2014-Nov-20 21:13N 01°13' E 103°52'6 8.3
2014-Nov-20 20:33N 01°17' E 103°56'0 0.3
2014-Nov-20 19:29N 01°17' E 103°56'0 0.0
2014-Nov-20 17:07N 01°17' E 103°56'0 0.0
2014-Nov-20 14:20N 01°17' E 103°56'0 0.1
2014-Nov-20 13:32N 01°17' E 103°56'0 0.0
2014-Nov-20 12:26N 01°17' E 103°56'0 0.0
2014-Nov-20 11:19N 01°17' E 103°56'0 0.0
2014-Nov-20 07:29N 01°17' E 103°56'0 0.0
2014-Nov-20 06:23N 01°17' E 103°56'0 0.0
2014-Nov-20 04:16N 01°17' E 103°56'0 0.0
2014-Nov-20 02:33N 01°17' E 103°56'0 0.0
2014-Nov-20 01:15N 01°17' E 103°56'0 0.0
2014-Nov-20 00:32N 01°17' E 103°56'0 0.0
2014-Nov-19 23:14N 01°17' E 103°56'0 0.0
2014-Nov-19 22:32N 01°17' E 103°56'0 0.0
2014-Nov-19 21:19N 01°17' E 103°56'0 0.0
2014-Nov-19 20:25N 01°17' E 103°56'0 0.0
2014-Nov-19 19:30N 01°17' E 103°56'0 0.0
2014-Nov-19 18:30N 01°17' E 103°56'0 0.0
2014-Nov-19 17:23N 01°17' E 103°56'0 0.0
2014-Nov-19 16:29N 01°17' E 103°56'0 0.0
2014-Nov-19 15:29N 01°17' E 103°56'3 3.0
2014-Nov-19 14:30N 01°15' E 103°54'3 3.0
2014-Nov-19 13:33N 01°16' E 103°51'0 0.0
2014-Nov-19 08:19N 01°16' E 103°51'0 0.0
2014-Nov-19 07:15N 01°16' E 103°51'0 0.0
2014-Nov-19 04:32N 01°16' E 103°51'0 0.0
2014-Nov-18 22:14N 01°16' E 103°51'0 0.1
2014-Nov-18 21:29N 01°16' E 103°51'0 0.1
2014-Nov-18 20:28N 01°16' E 103°51'0 0.0
2014-Nov-18 19:28N 01°16' E 103°51'0 0.0
2014-Nov-18 18:31N 01°16' E 103°51'0 0.0
2014-Nov-18 17:25N 01°16' E 103°51'0 0.0
2014-Nov-18 16:30N 01°16' E 103°51'0 0.0
2014-Nov-18 15:30N 01°16' E 103°51'0 0.0
2014-Nov-18 14:11N 01°16' E 103°51'0 0.0
2014-Nov-18 13:17N 01°16' E 103°51'0 0.0
2014-Nov-18 05:12N 01°16' E 103°51'1 0.7
2014-Nov-18 03:34N 01°15' E 103°51'4 3.7
2014-Nov-18 02:31N 01°11' E 103°51'77617.4
2014-Nov-16 06:00N 06°12' E 091°54'   060 / 181008.5 5.4 26.525.128.0
2014-Nov-12 18:00N 14°18' E 069°30'22518.7 050 / 111011.0 5.4 28.024.628.0
2014-Nov-12 06:00N 16°54' E 066°42'   030 / 141012.5 5.4 1.028.623.727.0
Track history (hours):
 
Tides and Currents Weather Stations Pressure Air Temp Water Temp Dewpoint Dewpoint Depression Visibility Wind Speed Wind Dir Waves Ship Positions

Shanghai Express

Last reported at 2014-Nov-20 21:13 UTC. Time now 2014-Nov-24 08:19 UTC.
Position N 01°13' E 103°52'.

Length 320.6 m; beam 42.8 m; draft 14.5 m.

Type: Ship (hazmat cat A). MMSI: 211367460.

Date/timePositionNaut miles runAvg speedWind from/ knotsBaromVisibWave heightAir tempDewpointWater temp
2014-Nov-20 21:13N 01°13' E 103°52'6 8.3
2014-Nov-20 20:33N 01°17' E 103°56'0 0.3
2014-Nov-20 19:29N 01°17' E 103°56'0 0.0
2014-Nov-20 17:07N 01°17' E 103°56'0 0.0
2014-Nov-20 14:20N 01°17' E 103°56'0 0.1
2014-Nov-20 13:32N 01°17' E 103°56'0 0.0
2014-Nov-20 12:26N 01°17' E 103°56'0 0.0
2014-Nov-20 11:19N 01°17' E 103°56'0 0.0
2014-Nov-20 07:29N 01°17' E 103°56'0 0.0
2014-Nov-20 06:23N 01°17' E 103°56'0 0.0
2014-Nov-20 04:16N 01°17' E 103°56'0 0.0
2014-Nov-20 02:33N 01°17' E 103°56'0 0.0
2014-Nov-20 01:15N 01°17' E 103°56'0 0.0
2014-Nov-20 00:32N 01°17' E 103°56'0 0.0
2014-Nov-19 23:14N 01°17' E 103°56'0 0.0
2014-Nov-19 22:32N 01°17' E 103°56'0 0.0
2014-Nov-19 21:19N 01°17' E 103°56'0 0.0
2014-Nov-19 20:25N 01°17' E 103°56'0 0.0
2014-Nov-19 19:30N 01°17' E 103°56'0 0.0
2014-Nov-19 18:30N 01°17' E 103°56'0 0.0
2014-Nov-19 17:23N 01°17' E 103°56'0 0.0
2014-Nov-19 16:29N 01°17' E 103°56'0 0.0
2014-Nov-19 15:29N 01°17' E 103°56'3 3.0
2014-Nov-19 14:30N 01°15' E 103°54'3 3.0
2014-Nov-19 13:33N 01°16' E 103°51'0 0.0
2014-Nov-19 08:19N 01°16' E 103°51'0 0.0
2014-Nov-19 07:15N 01°16' E 103°51'0 0.0
2014-Nov-19 04:32N 01°16' E 103°51'0 0.0
2014-Nov-18 22:14N 01°16' E 103°51'0 0.1
2014-Nov-18 21:29N 01°16' E 103°51'0 0.1
2014-Nov-18 20:28N 01°16' E 103°51'0 0.0
2014-Nov-18 19:28N 01°16' E 103°51'0 0.0
2014-Nov-18 18:31N 01°16' E 103°51'0 0.0
2014-Nov-18 17:25N 01°16' E 103°51'0 0.0
2014-Nov-18 16:30N 01°16' E 103°51'0 0.0
2014-Nov-18 15:30N 01°16' E 103°51'0 0.0
2014-Nov-18 14:11N 01°16' E 103°51'0 0.0
2014-Nov-18 13:17N 01°16' E 103°51'0 0.0
2014-Nov-18 05:12N 01°16' E 103°51'1 0.7
2014-Nov-18 03:34N 01°15' E 103°51'4 3.7
2014-Nov-18 02:31N 01°11' E 103°51'77617.4
2014-Nov-16 06:00N 06°12' E 091°54'   060 / 181008.5 5.4 26.525.128.0
2014-Nov-12 18:00N 14°18' E 069°30'22518.7 050 / 111011.0 5.4 28.024.628.0
2014-Nov-12 06:00N 16°54' E 066°42'   030 / 141012.5 5.4 1.028.623.727.0

Dump ship's entire track history